sensor_id;sensor_type;location;lat;lon;timestamp;temperature;humidity
38582;DHT22;24349;53.720;10.014;2024-03-06T00:01:41;5.20;99.90
38582;DHT22;24349;53.720;10.014;2024-03-06T00:04:07;5.10;99.90
38582;DHT22;24349;53.720;10.014;2024-03-06T00:06:32;5.20;99.90
38582;DHT22;24349;53.720;10.014;2024-03-06T00:08:59;5.20;99.90
38582;DHT22;24349;53.720;10.014;2024-03-06T00:11:24;5.20;99.90
38582;DHT22;24349;53.720;10.014;2024-03-06T00:13:50;5.20;99.90
38582;DHT22;24349;53.720;10.014;2024-03-06T00:16:16;5.20;99.90
38582;DHT22;24349;53.720;10.014;2024-03-06T00:18:42;5.30;99.90
38582;DHT22;24349;53.720;10.014;2024-03-06T00:21:07;5.20;99.90
38582;DHT22;24349;53.720;10.014;2024-03-06T00:23:35;5.30;99.90
38582;DHT22;24349;53.720;10.014;2024-03-06T00:26:01;5.30;99.90
38582;DHT22;24349;53.720;10.014;2024-03-06T00:28:27;5.30;99.90
38582;DHT22;24349;53.720;10.014;2024-03-06T00:30:53;5.20;99.90
38582;DHT22;24349;53.720;10.014;2024-03-06T00:33:19;5.20;99.90
38582;DHT22;24349;53.720;10.014;2024-03-06T00:35:44;5.20;99.90
38582;DHT22;24349;53.720;10.014;2024-03-06T00:38:10;5.20;99.90
38582;DHT22;24349;53.720;10.014;2024-03-06T00:40:37;5.20;99.90
38582;DHT22;24349;53.720;10.014;2024-03-06T00:43:02;5.10;99.90
38582;DHT22;24349;53.720;10.014;2024-03-06T00:45:28;5.10;99.90
38582;DHT22;24349;53.720;10.014;2024-03-06T00:47:53;5.10;99.90
38582;DHT22;24349;53.720;10.014;2024-03-06T00:50:19;5.10;99.90
38582;DHT22;24349;53.720;10.014;2024-03-06T00:52:48;5.10;99.90
38582;DHT22;24349;53.720;10.014;2024-03-06T00:55:14;5.00;99.90
38582;DHT22;24349;53.720;10.014;2024-03-06T00:57:40;5.00;99.90
38582;DHT22;24349;53.720;10.014;2024-03-06T01:00:06;5.00;99.90
38582;DHT22;24349;53.720;10.014;2024-03-06T01:02:36;5.00;99.90
38582;DHT22;24349;53.720;10.014;2024-03-06T01:05:02;5.10;99.90
38582;DHT22;24349;53.720;10.014;2024-03-06T01:07:29;5.10;99.90
38582;DHT22;24349;53.720;10.014;2024-03-06T01:09:56;5.10;99.90
38582;DHT22;24349;53.720;10.014;2024-03-06T01:12:25;5.10;99.90
38582;DHT22;24349;53.720;10.014;2024-03-06T01:14:51;5.00;99.90
38582;DHT22;24349;53.720;10.014;2024-03-06T01:17:17;5.00;99.90
38582;DHT22;24349;53.720;10.014;2024-03-06T01:19:42;5.00;99.90
38582;DHT22;24349;53.720;10.014;2024-03-06T01:22:11;5.00;99.90
38582;DHT22;24349;53.720;10.014;2024-03-06T01:24:40;5.00;99.90
38582;DHT22;24349;53.720;10.014;2024-03-06T01:27:05;5.00;99.90
38582;DHT22;24349;53.720;10.014;2024-03-06T01:29:31;5.00;99.90
38582;DHT22;24349;53.720;10.014;2024-03-06T01:31:58;5.00;99.90
38582;DHT22;24349;53.720;10.014;2024-03-06T01:34:24;4.90;99.90
38582;DHT22;24349;53.720;10.014;2024-03-06T01:36:50;4.90;99.90
38582;DHT22;24349;53.720;10.014;2024-03-06T01:39:16;4.80;99.90
38582;DHT22;24349;53.720;10.014;2024-03-06T01:41:49;4.80;99.90
38582;DHT22;24349;53.720;10.014;2024-03-06T01:44:16;4.80;99.90
38582;DHT22;24349;53.720;10.014;2024-03-06T01:46:42;4.90;99.90
38582;DHT22;24349;53.720;10.014;2024-03-06T01:49:09;4.80;99.90
38582;DHT22;24349;53.720;10.014;2024-03-06T01:51:35;4.80;99.90
38582;DHT22;24349;53.720;10.014;2024-03-06T01:54:01;4.80;99.90
38582;DHT22;24349;53.720;10.014;2024-03-06T01:56:30;4.90;99.90
38582;DHT22;24349;53.720;10.014;2024-03-06T01:58:57;4.90;99.90
38582;DHT22;24349;53.720;10.014;2024-03-06T02:01:23;4.90;99.90
38582;DHT22;24349;53.720;10.014;2024-03-06T02:03:49;4.90;99.90
38582;DHT22;24349;53.720;10.014;2024-03-06T02:06:17;4.80;99.90
38582;DHT22;24349;53.720;10.014;2024-03-06T02:08:45;4.80;99.90
38582;DHT22;24349;53.720;10.014;2024-03-06T02:11:12;4.70;99.90
38582;DHT22;24349;53.720;10.014;2024-03-06T02:13:39;4.80;99.90
38582;DHT22;24349;53.720;10.014;2024-03-06T02:16:05;4.80;99.90
38582;DHT22;24349;53.720;10.014;2024-03-06T02:18:31;4.80;99.90
38582;DHT22;24349;53.720;10.014;2024-03-06T02:20:56;4.80;99.90
38582;DHT22;24349;53.720;10.014;2024-03-06T02:23:22;4.80;99.90
38582;DHT22;24349;53.720;10.014;2024-03-06T02:25:48;4.80;99.90
38582;DHT22;24349;53.720;10.014;2024-03-06T02:28:14;4.80;99.90
38582;DHT22;24349;53.720;10.014;2024-03-06T02:30:39;4.80;99.90
38582;DHT22;24349;53.720;10.014;2024-03-06T02:33:05;4.80;99.90
38582;DHT22;24349;53.720;10.014;2024-03-06T02:35:38;4.80;99.90
38582;DHT22;24349;53.720;10.014;2024-03-06T02:38:05;4.90;99.90
38582;DHT22;24349;53.720;10.014;2024-03-06T02:40:31;4.80;99.90
38582;DHT22;24349;53.720;10.014;2024-03-06T02:42:57;4.90;99.90
38582;DHT22;24349;53.720;10.014;2024-03-06T02:45:23;4.80;99.90
38582;DHT22;24349;53.720;10.014;2024-03-06T02:47:49;4.80;99.90
38582;DHT22;24349;53.720;10.014;2024-03-06T02:50:15;4.80;99.90
38582;DHT22;24349;53.720;10.014;2024-03-06T02:52:41;4.80;99.90
38582;DHT22;24349;53.720;10.014;2024-03-06T02:55:06;4.90;99.90
38582;DHT22;24349;53.720;10.014;2024-03-06T02:57:32;4.90;99.90
38582;DHT22;24349;53.720;10.014;2024-03-06T02:59:58;4.80;99.90
38582;DHT22;24349;53.720;10.014;2024-03-06T03:02:24;4.80;99.90
38582;DHT22;24349;53.720;10.014;2024-03-06T03:04:51;4.70;99.90
38582;DHT22;24349;53.720;10.014;2024-03-06T03:07:17;4.80;99.90
38582;DHT22;24349;53.720;10.014;2024-03-06T03:09:45;4.80;99.90
38582;DHT22;24349;53.720;10.014;2024-03-06T03:12:11;4.80;99.90
38582;DHT22;24349;53.720;10.014;2024-03-06T03:14:37;4.90;99.90
38582;DHT22;24349;53.720;10.014;2024-03-06T03:17:03;4.80;99.90
38582;DHT22;24349;53.720;10.014;2024-03-06T03:19:31;4.80;99.90
38582;DHT22;24349;53.720;10.014;2024-03-06T03:21:56;4.90;99.90
38582;DHT22;24349;53.720;10.014;2024-03-06T03:24:23;4.80;99.90
38582;DHT22;24349;53.720;10.014;2024-03-06T03:26:51;5.00;99.90
38582;DHT22;24349;53.720;10.014;2024-03-06T03:29:17;4.90;99.90
38582;DHT22;24349;53.720;10.014;2024-03-06T03:31:43;4.90;99.90
38582;DHT22;24349;53.720;10.014;2024-03-06T03:34:08;4.90;99.90
38582;DHT22;24349;53.720;10.014;2024-03-06T03:36:34;4.80;99.90
38582;DHT22;24349;53.720;10.014;2024-03-06T03:39:00;4.90;99.90
38582;DHT22;24349;53.720;10.014;2024-03-06T03:41:25;4.80;99.90
38582;DHT22;24349;53.720;10.014;2024-03-06T03:43:51;4.80;99.90
38582;DHT22;24349;53.720;10.014;2024-03-06T03:46:17;4.80;99.90
38582;DHT22;24349;53.720;10.014;2024-03-06T03:48:42;4.80;99.90
38582;DHT22;24349;53.720;10.014;2024-03-06T03:51:08;4.80;99.90
38582;DHT22;24349;53.720;10.014;2024-03-06T03:53:34;4.80;99.90
38582;DHT22;24349;53.720;10.014;2024-03-06T03:56:00;4.70;99.90
38582;DHT22;24349;53.720;10.014;2024-03-06T03:58:26;4.70;99.90
38582;DHT22;24349;53.720;10.014;2024-03-06T04:00:52;4.80;99.90
38582;DHT22;24349;53.720;10.014;2024-03-06T04:03:21;4.80;99.90
38582;DHT22;24349;53.720;10.014;2024-03-06T04:05:48;4.90;99.90
38582;DHT22;24349;53.720;10.014;2024-03-06T04:08:14;4.90;99.90
38582;DHT22;24349;53.720;10.014;2024-03-06T04:10:39;4.80;99.90
38582;DHT22;24349;53.720;10.014;2024-03-06T04:13:05;4.80;99.90
38582;DHT22;24349;53.720;10.014;2024-03-06T04:15:31;4.90;99.90
38582;DHT22;24349;53.720;10.014;2024-03-06T04:17:57;4.80;99.90
38582;DHT22;24349;53.720;10.014;2024-03-06T04:20:23;4.80;99.90
38582;DHT22;24349;53.720;10.014;2024-03-06T04:22:49;4.80;99.90
38582;DHT22;24349;53.720;10.014;2024-03-06T04:25:16;4.80;99.90
38582;DHT22;24349;53.720;10.014;2024-03-06T04:27:43;4.80;99.90
38582;DHT22;24349;53.720;10.014;2024-03-06T04:30:09;4.80;99.90
38582;DHT22;24349;53.720;10.014;2024-03-06T04:32:34;4.70;99.90
38582;DHT22;24349;53.720;10.014;2024-03-06T04:35:00;4.80;99.90
38582;DHT22;24349;53.720;10.014;2024-03-06T04:37:26;4.70;99.90
38582;DHT22;24349;53.720;10.014;2024-03-06T04:39:52;4.80;99.90
38582;DHT22;24349;53.720;10.014;2024-03-06T04:42:18;4.70;99.90
38582;DHT22;24349;53.720;10.014;2024-03-06T04:44:45;4.70;99.90
38582;DHT22;24349;53.720;10.014;2024-03-06T04:47:11;4.60;99.90
38582;DHT22;24349;53.720;10.014;2024-03-06T04:49:37;4.60;99.90
38582;DHT22;24349;53.720;10.014;2024-03-06T04:52:02;4.60;99.90
38582;DHT22;24349;53.720;10.014;2024-03-06T04:54:28;4.60;99.90
38582;DHT22;24349;53.720;10.014;2024-03-06T04:56:55;4.60;99.90
38582;DHT22;24349;53.720;10.014;2024-03-06T04:59:20;4.50;99.90
38582;DHT22;24349;53.720;10.014;2024-03-06T05:01:46;4.50;99.90
38582;DHT22;24349;53.720;10.014;2024-03-06T05:04:11;4.50;99.90
38582;DHT22;24349;53.720;10.014;2024-03-06T05:06:37;4.50;99.90
38582;DHT22;24349;53.720;10.014;2024-03-06T05:09:03;4.50;99.90
38582;DHT22;24349;53.720;10.014;2024-03-06T05:11:30;4.40;99.90
38582;DHT22;24349;53.720;10.014;2024-03-06T05:14:01;4.40;99.90
38582;DHT22;24349;53.720;10.014;2024-03-06T05:16:26;4.40;99.90
38582;DHT22;24349;53.720;10.014;2024-03-06T05:18:52;4.40;99.90
38582;DHT22;24349;53.720;10.014;2024-03-06T05:21:19;4.40;99.90
38582;DHT22;24349;53.720;10.014;2024-03-06T05:23:45;4.40;99.90
38582;DHT22;24349;53.720;10.014;2024-03-06T05:26:10;4.20;99.90
38582;DHT22;24349;53.720;10.014;2024-03-06T05:28:36;4.20;99.90
38582;DHT22;24349;53.720;10.014;2024-03-06T05:31:16;4.20;99.90
38582;DHT22;24349;53.720;10.014;2024-03-06T05:33:48;4.20;99.90
38582;DHT22;24349;53.720;10.014;2024-03-06T05:36:15;4.10;99.90
38582;DHT22;24349;53.720;10.014;2024-03-06T05:38:41;4.00;99.90
38582;DHT22;24349;53.720;10.014;2024-03-06T05:41:07;4.00;99.90
38582;DHT22;24349;53.720;10.014;2024-03-06T05:43:34;3.90;99.90
38582;DHT22;24349;53.720;10.014;2024-03-06T05:45:59;3.90;99.90
38582;DHT22;24349;53.720;10.014;2024-03-06T05:48:26;3.80;99.90
38582;DHT22;24349;53.720;10.014;2024-03-06T05:50:52;3.70;99.90
38582;DHT22;24349;53.720;10.014;2024-03-06T05:53:18;3.80;99.90
38582;DHT22;24349;53.720;10.014;2024-03-06T05:55:44;3.70;99.90
38582;DHT22;24349;53.720;10.014;2024-03-06T05:58:09;3.70;99.90
38582;DHT22;24349;53.720;10.014;2024-03-06T06:00:35;3.70;99.90
38582;DHT22;24349;53.720;10.014;2024-03-06T06:03:01;3.70;99.90
38582;DHT22;24349;53.720;10.014;2024-03-06T06:05:26;3.60;99.90
38582;DHT22;24349;53.720;10.014;2024-03-06T06:07:52;3.50;99.90
38582;DHT22;24349;53.720;10.014;2024-03-06T06:10:18;3.40;99.90
38582;DHT22;24349;53.720;10.014;2024-03-06T06:12:44;3.40;99.90
38582;DHT22;24349;53.720;10.014;2024-03-06T06:15:10;3.40;99.90
38582;DHT22;24349;53.720;10.014;2024-03-06T06:17:36;3.40;99.90
38582;DHT22;24349;53.720;10.014;2024-03-06T06:20:05;3.50;99.90
38582;DHT22;24349;53.720;10.014;2024-03-06T06:22:36;3.50;99.90
38582;DHT22;24349;53.720;10.014;2024-03-06T06:25:01;3.60;99.90
38582;DHT22;24349;53.720;10.014;2024-03-06T06:27:28;3.60;99.90
38582;DHT22;24349;53.720;10.014;2024-03-06T06:29:54;3.60;99.90
38582;DHT22;24349;53.720;10.014;2024-03-06T06:32:20;3.60;99.90
38582;DHT22;24349;53.720;10.014;2024-03-06T06:34:46;3.60;99.90
38582;DHT22;24349;53.720;10.014;2024-03-06T06:37:12;3.60;99.90
38582;DHT22;24349;53.720;10.014;2024-03-06T06:39:37;3.60;99.90
38582;DHT22;24349;53.720;10.014;2024-03-06T06:42:03;3.60;99.90
38582;DHT22;24349;53.720;10.014;2024-03-06T06:44:29;3.70;99.90
38582;DHT22;24349;53.720;10.014;2024-03-06T06:46:55;3.70;99.90
38582;DHT22;24349;53.720;10.014;2024-03-06T06:49:21;3.80;99.90
38582;DHT22;24349;53.720;10.014;2024-03-06T06:51:47;3.80;99.90
38582;DHT22;24349;53.720;10.014;2024-03-06T06:54:14;3.80;99.90
38582;DHT22;24349;53.720;10.014;2024-03-06T06:56:40;3.90;99.90
38582;DHT22;24349;53.720;10.014;2024-03-06T06:59:06;3.90;99.90
38582;DHT22;24349;53.720;10.014;2024-03-06T07:01:31;3.90;99.90
38582;DHT22;24349;53.720;10.014;2024-03-06T07:03:58;4.00;99.90
38582;DHT22;24349;53.720;10.014;2024-03-06T07:06:27;4.00;99.90
38582;DHT22;24349;53.720;10.014;2024-03-06T07:08:53;4.10;99.90
38582;DHT22;24349;53.720;10.014;2024-03-06T07:11:18;4.30;99.90
38582;DHT22;24349;53.720;10.014;2024-03-06T07:13:44;4.40;99.90
38582;DHT22;24349;53.720;10.014;2024-03-06T07:16:10;4.50;99.90
38582;DHT22;24349;53.720;10.014;2024-03-06T07:18:35;4.70;99.90
38582;DHT22;24349;53.720;10.014;2024-03-06T07:21:01;5.10;99.90
38582;DHT22;24349;53.720;10.014;2024-03-06T07:23:27;5.50;99.90
38582;DHT22;24349;53.720;10.014;2024-03-06T07:25:52;6.00;99.90
38582;DHT22;24349;53.720;10.014;2024-03-06T07:28:18;6.30;99.90
38582;DHT22;24349;53.720;10.014;2024-03-06T07:30:44;6.40;99.90
38582;DHT22;24349;53.720;10.014;2024-03-06T07:33:10;6.40;99.90
38582;DHT22;24349;53.720;10.014;2024-03-06T07:35:35;6.50;99.90
38582;DHT22;24349;53.720;10.014;2024-03-06T07:38:02;7.10;99.90
38582;DHT22;24349;53.720;10.014;2024-03-06T07:40:30;8.00;99.90
38582;DHT22;24349;53.720;10.014;2024-03-06T07:42:56;8.80;99.90
38582;DHT22;24349;53.720;10.014;2024-03-06T07:45:21;9.30;99.90
38582;DHT22;24349;53.720;10.014;2024-03-06T07:47:47;9.80;99.90
38582;DHT22;24349;53.720;10.014;2024-03-06T07:50:13;10.40;99.90
38582;DHT22;24349;53.720;10.014;2024-03-06T07:52:47;10.80;99.90
38582;DHT22;24349;53.720;10.014;2024-03-06T07:55:12;11.40;99.90
38582;DHT22;24349;53.720;10.014;2024-03-06T07:57:38;11.30;99.90
38582;DHT22;24349;53.720;10.014;2024-03-06T08:00:08;11.10;99.90
38582;DHT22;24349;53.720;10.014;2024-03-06T08:02:43;11.20;99.90
38582;DHT22;24349;53.720;10.014;2024-03-06T08:05:10;10.90;99.90
38582;DHT22;24349;53.720;10.014;2024-03-06T08:07:41;11.30;99.90
38582;DHT22;24349;53.720;10.014;2024-03-06T08:10:11;11.60;99.90
38582;DHT22;24349;53.720;10.014;2024-03-06T08:12:43;11.40;99.90
38582;DHT22;24349;53.720;10.014;2024-03-06T08:15:13;11.60;99.90
38582;DHT22;24349;53.720;10.014;2024-03-06T08:17:40;12.30;99.90
38582;DHT22;24349;53.720;10.014;2024-03-06T08:20:07;12.70;99.90
38582;DHT22;24349;53.720;10.014;2024-03-06T08:22:34;12.50;99.90
38582;DHT22;24349;53.720;10.014;2024-03-06T08:25:05;12.40;99.90
38582;DHT22;24349;53.720;10.014;2024-03-06T08:27:34;12.00;99.90
38582;DHT22;24349;53.720;10.014;2024-03-06T08:30:00;12.40;99.90
38582;DHT22;24349;53.720;10.014;2024-03-06T08:32:26;11.90;99.90
38582;DHT22;24349;53.720;10.014;2024-03-06T08:34:52;12.00;99.90
38582;DHT22;24349;53.720;10.014;2024-03-06T08:37:18;12.20;99.90
38582;DHT22;24349;53.720;10.014;2024-03-06T08:39:44;11.90;99.90
38582;DHT22;24349;53.720;10.014;2024-03-06T08:42:10;11.40;99.90
38582;DHT22;24349;53.720;10.014;2024-03-06T08:44:37;10.70;99.90
38582;DHT22;24349;53.720;10.014;2024-03-06T08:47:03;10.90;99.90
38582;DHT22;24349;53.720;10.014;2024-03-06T08:49:29;10.80;99.90
38582;DHT22;24349;53.720;10.014;2024-03-06T08:51:54;10.10;99.90
38582;DHT22;24349;53.720;10.014;2024-03-06T08:54:20;9.80;99.90
38582;DHT22;24349;53.720;10.014;2024-03-06T08:56:46;9.20;99.90
38582;DHT22;24349;53.720;10.014;2024-03-06T08:59:11;9.20;99.90
38582;DHT22;24349;53.720;10.014;2024-03-06T09:01:37;9.20;99.90
38582;DHT22;24349;53.720;10.014;2024-03-06T09:04:03;9.60;99.90
38582;DHT22;24349;53.720;10.014;2024-03-06T09:06:28;9.90;99.90
38582;DHT22;24349;53.720;10.014;2024-03-06T09:08:54;11.20;99.90
38582;DHT22;24349;53.720;10.014;2024-03-06T09:11:19;12.00;99.90
38582;DHT22;24349;53.720;10.014;2024-03-06T09:13:45;11.30;99.90
38582;DHT22;24349;53.720;10.014;2024-03-06T09:16:11;11.40;99.90
38582;DHT22;24349;53.720;10.014;2024-03-06T09:18:36;12.10;99.90
38582;DHT22;24349;53.720;10.014;2024-03-06T09:21:02;12.60;99.90
38582;DHT22;24349;53.720;10.014;2024-03-06T09:23:27;11.90;99.90
38582;DHT22;24349;53.720;10.014;2024-03-06T09:25:55;10.50;99.90
38582;DHT22;24349;53.720;10.014;2024-03-06T09:28:21;9.50;99.90
38582;DHT22;24349;53.720;10.014;2024-03-06T09:30:48;9.40;99.90
38582;DHT22;24349;53.720;10.014;2024-03-06T09:33:13;9.40;99.90
38582;DHT22;24349;53.720;10.014;2024-03-06T09:35:39;9.60;99.90
38582;DHT22;24349;53.720;10.014;2024-03-06T09:38:11;9.80;99.90
38582;DHT22;24349;53.720;10.014;2024-03-06T09:40:36;9.70;99.90
38582;DHT22;24349;53.720;10.014;2024-03-06T09:43:02;9.60;99.90
38582;DHT22;24349;53.720;10.014;2024-03-06T09:45:28;9.30;99.90
38582;DHT22;24349;53.720;10.014;2024-03-06T09:47:54;9.20;99.90
38582;DHT22;24349;53.720;10.014;2024-03-06T09:50:23;9.50;99.90
38582;DHT22;24349;53.720;10.014;2024-03-06T09:52:51;9.50;99.90
38582;DHT22;24349;53.720;10.014;2024-03-06T09:55:18;9.50;99.90
38582;DHT22;24349;53.720;10.014;2024-03-06T10:00:16;9.30;99.90
38582;DHT22;24349;53.720;10.014;2024-03-06T10:02:59;9.20;99.90
38582;DHT22;24349;53.720;10.014;2024-03-06T10:05:29;9.20;99.90
38582;DHT22;24349;53.720;10.014;2024-03-06T10:07:56;9.10;99.90
38582;DHT22;24349;53.720;10.014;2024-03-06T10:10:22;9.40;99.90
38582;DHT22;24349;53.720;10.014;2024-03-06T10:12:50;9.50;99.90
38582;DHT22;24349;53.720;10.014;2024-03-06T10:15:16;9.70;99.90
38582;DHT22;24349;53.720;10.014;2024-03-06T10:17:42;9.80;99.90
38582;DHT22;24349;53.720;10.014;2024-03-06T10:20:23;10.10;99.90
38582;DHT22;24349;53.720;10.014;2024-03-06T10:22:53;10.70;99.90
38582;DHT22;24349;53.720;10.014;2024-03-06T10:25:22;10.70;99.90
38582;DHT22;24349;53.720;10.014;2024-03-06T10:28:08;10.30;99.90
38582;DHT22;24349;53.720;10.014;2024-03-06T10:30:38;9.40;99.90
38582;DHT22;24349;53.720;10.014;2024-03-06T10:33:07;9.00;99.90
38582;DHT22;24349;53.720;10.014;2024-03-06T10:35:36;9.00;99.90
38582;DHT22;24349;53.720;10.014;2024-03-06T10:38:06;9.30;99.90
38582;DHT22;24349;53.720;10.014;2024-03-06T10:40:37;9.50;99.90
38582;DHT22;24349;53.720;10.014;2024-03-06T10:43:05;9.50;99.90
38582;DHT22;24349;53.720;10.014;2024-03-06T10:45:50;9.60;99.90
38582;DHT22;24349;53.720;10.014;2024-03-06T10:48:18;9.40;99.90
38582;DHT22;24349;53.720;10.014;2024-03-06T10:50:45;9.00;99.90
38582;DHT22;24349;53.720;10.014;2024-03-06T10:53:15;8.90;99.90
38582;DHT22;24349;53.720;10.014;2024-03-06T10:55:44;9.00;99.90
38582;DHT22;24349;53.720;10.014;2024-03-06T10:58:12;9.30;99.90
38582;DHT22;24349;53.720;10.014;2024-03-06T11:00:43;10.20;99.90
38582;DHT22;24349;53.720;10.014;2024-03-06T11:03:10;10.70;99.90
38582;DHT22;24349;53.720;10.014;2024-03-06T11:05:39;10.70;99.90
38582;DHT22;24349;53.720;10.014;2024-03-06T11:08:07;10.70;99.90
38582;DHT22;24349;53.720;10.014;2024-03-06T11:10:41;10.50;99.90
38582;DHT22;24349;53.720;10.014;2024-03-06T11:13:25;10.00;99.90
38582;DHT22;24349;53.720;10.014;2024-03-06T11:15:57;10.00;99.90
38582;DHT22;24349;53.720;10.014;2024-03-06T11:23:33;11.10;99.90
38582;DHT22;24349;53.720;10.014;2024-03-06T11:26:05;10.60;99.90
38582;DHT22;24349;53.720;10.014;2024-03-06T11:28:35;10.40;99.90
38582;DHT22;24349;53.720;10.014;2024-03-06T11:31:05;10.40;99.90
38582;DHT22;24349;53.720;10.014;2024-03-06T11:33:41;10.70;99.90
38582;DHT22;24349;53.720;10.014;2024-03-06T11:36:22;11.00;99.90
38582;DHT22;24349;53.720;10.014;2024-03-06T11:41:19;12.90;99.90
38582;DHT22;24349;53.720;10.014;2024-03-06T11:43:45;13.60;99.90
38582;DHT22;24349;53.720;10.014;2024-03-06T11:46:11;14.40;99.90
38582;DHT22;24349;53.720;10.014;2024-03-06T11:48:37;15.30;99.90
38582;DHT22;24349;53.720;10.014;2024-03-06T11:51:04;15.50;99.90
38582;DHT22;24349;53.720;10.014;2024-03-06T11:53:33;13.90;99.90
38582;DHT22;24349;53.720;10.014;2024-03-06T11:56:00;13.60;99.90
38582;DHT22;24349;53.720;10.014;2024-03-06T11:58:26;12.90;99.90
38582;DHT22;24349;53.720;10.014;2024-03-06T12:00:53;13.00;99.90
38582;DHT22;24349;53.720;10.014;2024-03-06T12:03:19;13.10;99.90
38582;DHT22;24349;53.720;10.014;2024-03-06T12:05:46;12.90;99.90
38582;DHT22;24349;53.720;10.014;2024-03-06T12:08:12;12.80;99.90
38582;DHT22;24349;53.720;10.014;2024-03-06T12:10:38;12.70;99.90
38582;DHT22;24349;53.720;10.014;2024-03-06T12:13:04;12.50;99.90
38582;DHT22;24349;53.720;10.014;2024-03-06T12:15:30;12.50;99.90
38582;DHT22;24349;53.720;10.014;2024-03-06T12:17:56;13.30;99.90
38582;DHT22;24349;53.720;10.014;2024-03-06T12:20:21;13.00;99.90
38582;DHT22;24349;53.720;10.014;2024-03-06T12:22:51;12.40;99.90
38582;DHT22;24349;53.720;10.014;2024-03-06T12:25:23;12.90;99.90
38582;DHT22;24349;53.720;10.014;2024-03-06T12:27:50;13.10;99.90
38582;DHT22;24349;53.720;10.014;2024-03-06T12:30:20;13.30;99.90
38582;DHT22;24349;53.720;10.014;2024-03-06T12:33:00;14.50;99.90
38582;DHT22;24349;53.720;10.014;2024-03-06T12:35:29;16.00;99.90
38582;DHT22;24349;53.720;10.014;2024-03-06T12:37:55;16.00;99.90
38582;DHT22;24349;53.720;10.014;2024-03-06T12:40:21;16.20;99.90
38582;DHT22;24349;53.720;10.014;2024-03-06T12:42:47;16.00;99.90
38582;DHT22;24349;53.720;10.014;2024-03-06T12:45:15;15.50;99.90
38582;DHT22;24349;53.720;10.014;2024-03-06T12:47:47;15.70;99.90
38582;DHT22;24349;53.720;10.014;2024-03-06T12:50:16;17.20;99.90
38582;DHT22;24349;53.720;10.014;2024-03-06T12:52:41;17.80;99.90
38582;DHT22;24349;53.720;10.014;2024-03-06T12:55:10;17.90;99.90
38582;DHT22;24349;53.720;10.014;2024-03-06T12:57:36;17.70;99.90
38582;DHT22;24349;53.720;10.014;2024-03-06T13:00:02;16.70;99.90
38582;DHT22;24349;53.720;10.014;2024-03-06T13:02:28;15.50;99.90
38582;DHT22;24349;53.720;10.014;2024-03-06T13:04:54;15.70;99.90
38582;DHT22;24349;53.720;10.014;2024-03-06T13:07:20;15.00;99.90
38582;DHT22;24349;53.720;10.014;2024-03-06T13:09:45;14.20;99.90
38582;DHT22;24349;53.720;10.014;2024-03-06T13:12:11;15.10;99.90
38582;DHT22;24349;53.720;10.014;2024-03-06T13:14:37;16.10;99.90
38582;DHT22;24349;53.720;10.014;2024-03-06T13:17:02;17.50;99.90
38582;DHT22;24349;53.720;10.014;2024-03-06T13:19:28;18.80;99.90
38582;DHT22;24349;53.720;10.014;2024-03-06T13:21:54;17.60;99.90
38582;DHT22;24349;53.720;10.014;2024-03-06T13:24:20;16.30;99.90
38582;DHT22;24349;53.720;10.014;2024-03-06T13:26:46;15.20;99.90
38582;DHT22;24349;53.720;10.014;2024-03-06T13:29:12;14.90;99.90
38582;DHT22;24349;53.720;10.014;2024-03-06T13:31:38;14.10;99.90
38582;DHT22;24349;53.720;10.014;2024-03-06T13:34:04;13.90;99.90
38582;DHT22;24349;53.720;10.014;2024-03-06T13:36:30;15.20;99.90
38582;DHT22;24349;53.720;10.014;2024-03-06T13:38:56;15.60;99.90
38582;DHT22;24349;53.720;10.014;2024-03-06T13:41:22;15.40;99.90
38582;DHT22;24349;53.720;10.014;2024-03-06T13:43:48;14.50;99.90
38582;DHT22;24349;53.720;10.014;2024-03-06T13:46:13;13.60;99.90
38582;DHT22;24349;53.720;10.014;2024-03-06T13:48:39;12.90;99.90
38582;DHT22;24349;53.720;10.014;2024-03-06T13:51:05;12.60;99.90
38582;DHT22;24349;53.720;10.014;2024-03-06T13:53:31;12.20;99.90
38582;DHT22;24349;53.720;10.014;2024-03-06T13:55:56;11.80;99.90
38582;DHT22;24349;53.720;10.014;2024-03-06T13:58:22;11.40;99.90
38582;DHT22;24349;53.720;10.014;2024-03-06T14:00:48;10.80;99.90
38582;DHT22;24349;53.720;10.014;2024-03-06T14:03:14;10.80;99.90
38582;DHT22;24349;53.720;10.014;2024-03-06T14:05:39;10.60;99.90
38582;DHT22;24349;53.720;10.014;2024-03-06T14:08:05;10.50;99.90
38582;DHT22;24349;53.720;10.014;2024-03-06T14:10:31;10.60;99.90
38582;DHT22;24349;53.720;10.014;2024-03-06T14:13:02;10.60;99.90
38582;DHT22;24349;53.720;10.014;2024-03-06T14:15:27;10.30;99.90
38582;DHT22;24349;53.720;10.014;2024-03-06T14:17:53;10.10;99.90
38582;DHT22;24349;53.720;10.014;2024-03-06T14:20:20;10.90;99.90
38582;DHT22;24349;53.720;10.014;2024-03-06T14:22:46;12.80;99.90
38582;DHT22;24349;53.720;10.014;2024-03-06T14:25:12;14.20;99.90
38582;DHT22;24349;53.720;10.014;2024-03-06T14:27:38;15.20;99.90
38582;DHT22;24349;53.720;10.014;2024-03-06T14:30:05;15.60;99.90
38582;DHT22;24349;53.720;10.014;2024-03-06T14:32:32;16.20;99.90
38582;DHT22;24349;53.720;10.014;2024-03-06T14:34:58;16.20;99.90
38582;DHT22;24349;53.720;10.014;2024-03-06T14:37:23;16.50;99.90
38582;DHT22;24349;53.720;10.014;2024-03-06T14:39:49;16.90;99.90
38582;DHT22;24349;53.720;10.014;2024-03-06T14:42:16;17.20;99.90
38582;DHT22;24349;53.720;10.014;2024-03-06T14:44:42;17.50;99.90
38582;DHT22;24349;53.720;10.014;2024-03-06T14:47:12;17.50;99.90
38582;DHT22;24349;53.720;10.014;2024-03-06T14:49:39;17.20;99.90
38582;DHT22;24349;53.720;10.014;2024-03-06T14:52:05;17.70;99.90
38582;DHT22;24349;53.720;10.014;2024-03-06T14:54:32;17.80;99.30
38582;DHT22;24349;53.720;10.014;2024-03-06T14:56:57;18.00;99.00
38582;DHT22;24349;53.720;10.014;2024-03-06T14:59:23;18.00;99.50
38582;DHT22;24349;53.720;10.014;2024-03-06T15:01:49;17.60;99.90
38582;DHT22;24349;53.720;10.014;2024-03-06T15:04:15;17.70;99.10
38582;DHT22;24349;53.720;10.014;2024-03-06T15:06:42;17.60;99.50
38582;DHT22;24349;53.720;10.014;2024-03-06T15:09:08;17.90;98.90
38582;DHT22;24349;53.720;10.014;2024-03-06T15:11:39;16.70;98.80
38582;DHT22;24349;53.720;10.014;2024-03-06T15:14:04;16.10;99.30
38582;DHT22;24349;53.720;10.014;2024-03-06T15:16:30;16.10;99.70
38582;DHT22;24349;53.720;10.014;2024-03-06T15:18:56;15.40;99.70
38582;DHT22;24349;53.720;10.014;2024-03-06T15:21:23;14.90;99.80
38582;DHT22;24349;53.720;10.014;2024-03-06T15:23:49;15.20;99.90
38582;DHT22;24349;53.720;10.014;2024-03-06T15:26:16;15.20;99.90
38582;DHT22;24349;53.720;10.014;2024-03-06T15:28:42;15.40;99.90
38582;DHT22;24349;53.720;10.014;2024-03-06T15:31:08;15.30;99.90
38582;DHT22;24349;53.720;10.014;2024-03-06T15:33:35;15.40;99.90